createdAt,value
2023-05-02T00:00:48.841Z,97650.47
2023-05-02T00:05:50.801Z,97644.63
2023-05-02T00:10:52.680Z,97643.19
2023-05-02T00:15:54.508Z,97644.50
2023-05-02T00:20:57.113Z,97651.25
2023-05-02T00:25:58.936Z,97647.19
2023-05-02T00:31:00.767Z,97654.72
2023-05-02T00:36:02.594Z,97650.06
2023-05-02T00:41:05.543Z,97643.97
2023-05-02T00:46:07.966Z,97647.78
2023-05-02T00:51:12.265Z,97640.97
2023-05-02T00:56:14.126Z,97635.22
2023-05-02T01:01:55.739Z,97638.88
2023-05-02T01:06:57.556Z,97634.44
2023-05-02T01:12:29.039Z,97633.41
2023-05-02T01:17:32.985Z,97639.81
2023-05-02T01:22:38.592Z,97642.66
2023-05-02T01:27:44.193Z,97643.34
2023-05-02T01:32:48.731Z,97647.94
2023-05-02T01:37:53.392Z,97659.03
2023-05-02T01:42:57.815Z,97657.25
2023-05-02T01:48:02.022Z,97663.78
2023-05-02T01:53:08.933Z,97662.03
2023-05-02T01:58:12.373Z,97663.06
2023-05-02T02:03:16.173Z,97674.88
2023-05-02T02:08:18.177Z,97678.97
2023-05-02T02:13:37.548Z,97675.22
2023-05-02T02:18:39.823Z,97688.53
2023-05-02T02:23:44.192Z,97695.81
2023-05-02T02:28:46.640Z,97708.63
2023-05-02T02:33:49.507Z,97706.66
2023-05-02T02:39:01.889Z,97719.75
2023-05-02T02:44:22.800Z,97720.53
2023-05-02T02:49:46.294Z,97731.25
2023-05-02T02:55:01.037Z,97742.13
2023-05-02T03:00:10.794Z,97737.44
2023-05-02T03:05:13.709Z,97753.25
2023-05-02T03:10:15.546Z,97752.41
2023-05-02T03:15:31.499Z,97759.25
2023-05-02T03:20:34.404Z,97756.00
2023-05-02T03:25:37.126Z,97765.72
2023-05-02T03:30:40.883Z,97765.75
2023-05-02T03:35:44.090Z,97774.81
2023-05-02T03:40:47.430Z,97775.78
2023-05-02T03:45:49.299Z,97783.88
2023-05-02T03:50:52.211Z,97784.34
2023-05-02T03:55:54.353Z,97789.03
2023-05-02T04:01:04.425Z,97796.19
2023-05-02T04:06:07.000Z,97809.31
2023-05-02T04:11:10.659Z,97815.00
2023-05-02T04:16:12.928Z,97823.91
2023-05-02T04:21:15.106Z,97827.63
2023-05-02T04:26:18.792Z,97833.50
2023-05-02T04:31:32.698Z,97850.31
2023-05-02T04:36:35.411Z,97847.25
2023-05-02T04:41:37.610Z,97847.56
2023-05-02T04:46:42.164Z,97858.44
2023-05-02T04:51:44.565Z,97861.03
2023-05-02T04:56:47.699Z,97871.41
2023-05-02T05:01:50.465Z,97880.47
2023-05-02T05:06:53.122Z,97890.69
2023-05-02T05:11:56.316Z,97894.88
2023-05-02T05:16:58.715Z,97902.16
2023-05-02T05:22:01.263Z,97913.31
2023-05-02T05:27:03.136Z,97920.31
2023-05-02T05:32:06.261Z,97920.25
2023-05-02T05:37:09.481Z,97926.03
2023-05-02T05:42:12.758Z,97938.19
2023-05-02T05:47:22.111Z,97942.19
2023-05-02T05:52:25.405Z,97955.09
2023-05-02T05:57:29.101Z,97965.69
2023-05-02T06:02:32.100Z,97970.47
2023-05-02T06:07:34.676Z,97977.53
2023-05-02T06:12:36.597Z,97986.44
2023-05-02T06:17:39.149Z,97986.03
2023-05-02T06:22:41.176Z,97995.63
2023-05-02T06:27:43.038Z,98007.63
2023-05-02T06:32:44.920Z,98011.94
2023-05-02T06:37:46.796Z,98017.63
2023-05-02T06:42:48.948Z,98027.69
2023-05-02T06:47:50.750Z,98037.00
2023-05-02T06:52:52.651Z,98045.28
2023-05-02T06:57:55.087Z,98061.38
2023-05-02T07:02:57.341Z,98062.53
2023-05-02T07:07:59.758Z,98074.28
2023-05-02T07:13:01.561Z,98077.25
2023-05-02T07:18:03.552Z,98081.03
2023-05-02T07:23:05.461Z,98086.53
2023-05-02T07:28:07.613Z,98084.22
2023-05-02T07:33:09.574Z,98097.38
2023-05-02T07:38:11.478Z,98095.28
2023-05-02T07:43:14.291Z,98112.34
2023-05-02T07:48:16.155Z,98119.97
2023-05-02T07:53:18.022Z,98123.03
2023-05-02T07:58:19.936Z,98136.28
2023-05-02T08:03:21.939Z,98141.50
2023-05-02T08:08:23.953Z,98144.22
2023-05-02T08:13:25.873Z,98148.38
2023-05-02T08:18:27.806Z,98162.06
2023-05-02T08:23:29.684Z,98178.81
2023-05-02T08:28:31.996Z,98171.59
2023-05-02T08:33:33.794Z,98183.41
2023-05-02T08:38:35.700Z,98186.97
2023-05-02T08:43:39.220Z,98192.31
2023-05-02T08:48:43.348Z,98190.69
2023-05-02T08:53:45.960Z,98194.72
2023-05-02T08:58:47.960Z,98204.56
2023-05-02T09:03:50.499Z,98209.69
2023-05-02T09:08:53.198Z,98218.59
2023-05-02T09:13:56.127Z,98229.97
2023-05-02T09:18:59.363Z,98228.78
2023-05-02T09:24:01.762Z,98231.22
2023-05-02T09:29:05.465Z,98247.16
2023-05-02T09:34:12.630Z,98245.00
2023-05-02T09:39:16.562Z,98249.50
2023-05-02T09:44:23.711Z,98247.88
2023-05-02T09:49:46.282Z,98255.00
2023-05-02T09:54:50.821Z,98256.88
2023-05-02T09:59:57.921Z,98262.19
2023-05-02T10:05:01.907Z,98265.09
2023-05-02T10:10:04.308Z,98264.88
2023-05-02T10:15:09.742Z,98270.44
2023-05-02T10:20:18.552Z,98275.50
2023-05-02T10:25:21.029Z,98278.38
2023-05-02T10:30:23.746Z,98283.03
2023-05-02T10:35:26.833Z,98285.81
2023-05-02T10:40:29.118Z,98281.81
2023-05-02T10:45:35.480Z,98276.81
2023-05-02T10:50:51.429Z,98281.03
2023-05-02T10:56:12.337Z,98284.00
2023-05-02T11:01:36.645Z,98277.19
2023-05-02T11:07:02.196Z,98272.69
2023-05-02T11:12:05.686Z,98275.53
2023-05-02T11:17:09.012Z,98265.47
2023-05-02T11:22:24.296Z,98270.06
2023-05-02T11:27:29.161Z,98268.69
2023-05-02T11:32:46.833Z,98267.38
2023-05-02T11:37:58.556Z,98274.94
2023-05-02T11:43:01.047Z,98276.13
2023-05-02T11:48:07.298Z,98279.81
2023-05-02T11:53:14.074Z,98274.75
2023-05-02T11:58:18.028Z,98287.09
2023-05-02T12:03:33.727Z,98286.19
2023-05-02T12:08:35.762Z,98283.41
2023-05-02T12:13:45.771Z,98286.03
2023-05-02T12:18:48.411Z,98286.47
2023-05-02T12:23:50.461Z,98283.22
2023-05-02T12:28:55.022Z,98286.75
2023-05-02T12:33:59.436Z,98293.19
2023-05-02T12:39:02.729Z,98286.31
2023-05-02T12:44:06.165Z,98287.72
2023-05-02T12:49:10.023Z,98282.63
2023-05-02T12:54:20.973Z,98282.53
2023-05-02T12:59:26.790Z,98295.19
2023-05-02T13:04:40.231Z,98287.44
2023-05-02T13:09:42.071Z,98272.38
2023-05-02T13:14:44.473Z,98294.38
2023-05-02T13:19:57.788Z,98284.72
2023-05-02T13:25:07.112Z,98281.94
2023-05-02T13:30:12.031Z,98289.66
2023-05-02T13:35:15.844Z,98288.09
2023-05-02T13:40:17.992Z,98283.94
2023-05-02T13:45:19.878Z,98281.09
2023-05-02T13:50:21.948Z,98282.03
2023-05-02T13:55:24.031Z,98296.50
2023-05-02T14:00:28.083Z,98306.28
2023-05-02T14:05:30.486Z,98308.16
2023-05-02T14:10:32.561Z,98318.56
2023-05-02T14:15:34.408Z,98335.72
2023-05-02T14:20:36.228Z,98344.56
2023-05-02T14:25:38.105Z,98349.50
2023-05-02T14:30:39.959Z,98351.13
2023-05-02T14:35:41.799Z,98361.06
2023-05-02T14:40:43.649Z,98372.75
2023-05-02T14:45:45.468Z,98375.06
2023-05-02T14:50:47.229Z,98380.38
2023-05-02T14:55:49.030Z,98381.75
2023-05-02T15:00:51.005Z,98400.72
2023-05-02T15:05:52.859Z,98399.31
2023-05-02T15:10:55.920Z,98398.59
2023-05-02T15:15:57.981Z,98393.50
2023-05-02T15:20:59.852Z,98407.69
2023-05-02T15:26:01.779Z,98404.91
2023-05-02T15:31:03.766Z,98404.53
2023-05-02T15:36:05.816Z,98406.69
2023-05-02T15:41:08.214Z,98414.28
2023-05-02T15:46:11.194Z,98429.06
2023-05-02T15:51:14.079Z,98430.75
2023-05-02T15:56:16.668Z,98441.91
2023-05-02T16:01:21.080Z,98443.50
2023-05-02T16:06:23.098Z,98445.78
2023-05-02T16:11:24.968Z,98454.09
2023-05-02T16:16:30.432Z,98458.00
2023-05-02T16:21:32.254Z,98475.75
2023-05-02T16:26:34.517Z,98475.63
2023-05-02T16:31:36.424Z,98485.88
2023-05-02T16:36:38.352Z,98497.69
2023-05-02T16:41:40.730Z,98502.94
2023-05-02T16:46:42.740Z,98498.06
2023-05-02T16:51:44.682Z,98503.66
2023-05-02T16:56:46.560Z,98503.22
2023-05-02T17:01:48.412Z,98508.31
2023-05-02T17:06:50.262Z,98515.94
2023-05-02T17:11:52.262Z,98515.28
2023-05-02T17:16:54.100Z,98521.16
2023-05-02T17:21:58.085Z,98521.00
2023-05-02T17:27:00.967Z,98534.22
2023-05-02T17:32:02.914Z,98544.97
2023-05-02T17:37:04.768Z,98539.75
2023-05-02T17:42:07.026Z,98549.44
2023-05-02T17:47:08.877Z,98549.91
2023-05-02T17:52:11.118Z,98557.25
2023-05-02T17:57:14.641Z,98563.81
2023-05-02T18:02:17.844Z,98561.97
2023-05-02T18:07:23.921Z,98569.91
2023-05-02T18:12:25.777Z,98577.13
2023-05-02T18:17:28.119Z,98576.88
2023-05-02T18:22:29.959Z,98582.72
2023-05-02T18:27:32.292Z,98592.25
2023-05-02T18:32:34.677Z,98605.25
2023-05-02T18:37:36.809Z,98606.16
2023-05-02T18:42:38.656Z,98606.25
2023-05-02T18:47:40.589Z,98602.47
2023-05-02T18:52:42.487Z,98607.59
2023-05-02T18:57:45.177Z,98610.44
2023-05-02T19:02:47.801Z,98617.22
2023-05-02T19:07:49.929Z,98618.66
2023-05-02T19:12:51.820Z,98634.75
2023-05-02T19:17:54.750Z,98636.94
2023-05-02T19:23:15.266Z,98634.69
2023-05-02T19:28:19.851Z,98637.81
2023-05-02T19:33:21.749Z,98649.06
2023-05-02T19:38:23.630Z,98654.56
2023-05-02T19:43:25.584Z,98651.59
2023-05-02T19:48:27.892Z,98667.66
2023-05-02T19:53:34.531Z,98668.03
2023-05-02T19:58:36.507Z,98671.00
2023-05-02T20:03:39.722Z,98676.44
2023-05-02T20:08:41.870Z,98673.84
2023-05-02T20:13:44.269Z,98692.00
2023-05-02T20:18:46.034Z,98686.78
2023-05-02T20:23:47.864Z,98688.63
2023-05-02T20:28:49.721Z,98692.03
2023-05-02T20:33:52.004Z,98696.28
2023-05-02T20:38:53.898Z,98703.94
2023-05-02T20:43:57.184Z,98701.34
2023-05-02T20:48:59.524Z,98706.75
2023-05-02T20:54:01.468Z,98703.22
2023-05-02T20:59:03.306Z,98701.72
2023-05-02T21:04:05.306Z,98702.91
2023-05-02T21:09:09.314Z,98701.94
2023-05-02T21:14:11.908Z,98702.25
2023-05-02T21:19:13.750Z,98708.00
2023-05-02T21:24:15.810Z,98708.25
2023-05-02T21:29:18.652Z,98712.38
2023-05-02T21:34:20.475Z,98710.47
2023-05-02T21:39:22.361Z,98719.72
2023-05-02T21:44:24.236Z,98720.66
2023-05-02T21:49:31.973Z,98722.44
2023-05-02T21:54:33.821Z,98723.84
2023-05-02T21:59:35.949Z,98722.22
2023-05-02T22:04:37.755Z,98718.84
2023-05-02T22:09:39.558Z,98721.72
2023-05-02T22:14:45.772Z,98721.06
2023-05-02T22:19:54.225Z,98724.22
2023-05-02T22:24:56.694Z,98723.69
2023-05-02T22:29:58.589Z,98729.53
2023-05-02T22:35:00.510Z,98724.50
2023-05-02T22:40:03.004Z,98731.88
2023-05-02T22:45:07.651Z,98739.38
2023-05-02T22:50:10.356Z,98733.78
2023-05-02T22:55:12.925Z,98735.44
2023-05-02T23:00:15.056Z,98738.31
2023-05-02T23:05:16.888Z,98736.38
2023-05-02T23:10:18.738Z,98740.50
2023-05-02T23:15:20.937Z,98744.56
2023-05-02T23:20:23.329Z,98748.09
2023-05-02T23:25:27.646Z,98758.47
2023-05-02T23:30:31.299Z,98764.44
2023-05-02T23:35:33.543Z,98760.63
2023-05-02T23:40:35.629Z,98766.47
2023-05-02T23:45:37.430Z,98761.28
2023-05-02T23:50:39.230Z,98765.63
2023-05-02T23:55:41.526Z,98771.22
